sensor_id;sensor_type;location;lat;lon;timestamp;pressure;altitude;pressure_sealevel;temperature;humidity
7990;BME280;4040;42.848;23.034;2023-06-14T00:08:48;94694.34;;;15.66;100.00
7990;BME280;4040;42.848;23.034;2023-06-14T00:14:38;94692.97;;;15.49;100.00
7990;BME280;4040;42.848;23.034;2023-06-14T00:20:27;94686.75;;;15.36;100.00
7990;BME280;4040;42.848;23.034;2023-06-14T00:26:17;94683.06;;;15.31;100.00
7990;BME280;4040;42.848;23.034;2023-06-14T00:32:07;94691.72;;;15.25;100.00
7990;BME280;4040;42.848;23.034;2023-06-14T00:37:55;94680.47;;;15.39;100.00
7990;BME280;4040;42.848;23.034;2023-06-14T00:43:56;94679.03;;;15.47;100.00
7990;BME280;4040;42.848;23.034;2023-06-14T00:49:45;94671.66;;;15.48;100.00
7990;BME280;4040;42.848;23.034;2023-06-14T00:55:35;94676.75;;;15.58;100.00
7990;BME280;4040;42.848;23.034;2023-06-14T01:01:25;94666.56;;;15.62;100.00
7990;BME280;4040;42.848;23.034;2023-06-14T01:11:31;94665.88;;;15.58;100.00
7990;BME280;4040;42.848;23.034;2023-06-14T01:17:23;94667.34;;;15.50;100.00
7990;BME280;4040;42.848;23.034;2023-06-14T01:23:15;94661.22;;;15.46;100.00
7990;BME280;4040;42.848;23.034;2023-06-14T01:29:04;94659.50;;;15.40;100.00
7990;BME280;4040;42.848;23.034;2023-06-14T01:34:54;94666.56;;;15.50;100.00
7990;BME280;4040;42.848;23.034;2023-06-14T01:40:44;94671.25;;;15.49;100.00
7990;BME280;4040;42.848;23.034;2023-06-14T01:46:33;94679.16;;;15.56;100.00
7990;BME280;4040;42.848;23.034;2023-06-14T01:52:22;94680.66;;;15.57;100.00
7990;BME280;4040;42.848;23.034;2023-06-14T01:58:13;94690.25;;;15.49;100.00
7990;BME280;4040;42.848;23.034;2023-06-14T02:04:03;94695.00;;;15.45;100.00
7990;BME280;4040;42.848;23.034;2023-06-14T02:14:15;94702.81;;;15.43;100.00
7990;BME280;4040;42.848;23.034;2023-06-14T02:20:05;94705.22;;;15.41;100.00
7990;BME280;4040;42.848;23.034;2023-06-14T02:25:54;94706.63;;;15.46;100.00
7990;BME280;4040;42.848;23.034;2023-06-14T02:31:45;94704.97;;;15.48;100.00
7990;BME280;4040;42.848;23.034;2023-06-14T02:37:35;94703.81;;;15.49;100.00
7990;BME280;4040;42.848;23.034;2023-06-14T02:43:24;94703.91;;;15.46;100.00
7990;BME280;4040;42.848;23.034;2023-06-14T02:49:14;94705.22;;;15.41;100.00
7990;BME280;4040;42.848;23.034;2023-06-14T02:55:03;94701.09;;;15.37;100.00
7990;BME280;4040;42.848;23.034;2023-06-14T03:00:53;94703.91;;;15.33;100.00
7990;BME280;4040;42.848;23.034;2023-06-14T03:06:43;94685.41;;;15.04;100.00
7990;BME280;4040;42.848;23.034;2023-06-14T03:16:59;94704.72;;;15.18;100.00
7990;BME280;4040;42.848;23.034;2023-06-14T03:22:49;94719.91;;;15.16;100.00
7990;BME280;4040;42.848;23.034;2023-06-14T03:28:38;94724.75;;;15.36;100.00
7990;BME280;4040;42.848;23.034;2023-06-14T03:34:27;94714.66;;;15.37;100.00
7990;BME280;4040;42.848;23.034;2023-06-14T03:40:18;94701.19;;;15.58;100.00
7990;BME280;4040;42.848;23.034;2023-06-14T03:46:08;94728.66;;;15.85;100.00
7990;BME280;4040;42.848;23.034;2023-06-14T03:51:57;94744.78;;;16.14;100.00
7990;BME280;4040;42.848;23.034;2023-06-14T03:57:47;94741.78;;;16.58;100.00
7990;BME280;4040;42.848;23.034;2023-06-14T04:03:36;94746.84;;;16.69;100.00
7990;BME280;4040;42.848;23.034;2023-06-14T04:09:25;94732.53;;;16.99;100.00
7990;BME280;4040;42.848;23.034;2023-06-14T04:11:52;94730.38;;;17.15;100.00
7990;BME280;4040;42.848;23.034;2023-06-14T04:17:42;94718.91;;;17.72;100.00
7990;BME280;4040;42.848;23.034;2023-06-14T04:23:31;94710.56;;;18.15;100.00
7990;BME280;4040;42.848;23.034;2023-06-14T04:29:20;94708.78;;;19.02;100.00
7990;BME280;4040;42.848;23.034;2023-06-14T04:35:10;94697.69;;;21.29;100.00
7990;BME280;4040;42.848;23.034;2023-06-14T04:40:59;94691.09;;;22.53;100.00
7990;BME280;4040;42.848;23.034;2023-06-14T04:46:49;94682.66;;;22.02;100.00
7990;BME280;4040;42.848;23.034;2023-06-14T04:52:40;94697.69;;;21.43;100.00
7990;BME280;4040;42.848;23.034;2023-06-14T04:58:29;94684.13;;;21.83;100.00
7990;BME280;4040;42.848;23.034;2023-06-14T05:04:19;94694.31;;;22.72;100.00
7990;BME280;4040;42.848;23.034;2023-06-14T05:10:10;94694.34;;;23.17;100.00
7990;BME280;4040;42.848;23.034;2023-06-14T05:15:59;94701.41;;;22.58;100.00
7990;BME280;4040;42.848;23.034;2023-06-14T05:21:48;94710.44;;;21.46;100.00
7990;BME280;4040;42.848;23.034;2023-06-14T05:27:38;94725.19;;;20.03;100.00
7990;BME280;4040;42.848;23.034;2023-06-14T05:33:29;94678.13;;;20.08;100.00
7990;BME280;4040;42.848;23.034;2023-06-14T05:39:18;94733.50;;;20.87;100.00
7990;BME280;4040;42.848;23.034;2023-06-14T05:45:08;94714.75;;;20.72;100.00
7990;BME280;4040;42.848;23.034;2023-06-14T05:50:58;94718.72;;;20.71;100.00
7990;BME280;4040;42.848;23.034;2023-06-14T05:56:47;94723.69;;;20.95;100.00
7990;BME280;4040;42.848;23.034;2023-06-14T06:02:36;94724.84;;;21.32;100.00
7990;BME280;4040;42.848;23.034;2023-06-14T06:08:26;94721.63;;;22.06;100.00
7990;BME280;4040;42.848;23.034;2023-06-14T06:17:57;94728.50;;;22.36;100.00
7990;BME280;4040;42.848;23.034;2023-06-14T06:23:46;94721.00;;;21.24;100.00
7990;BME280;4040;42.848;23.034;2023-06-14T06:29:35;94734.09;;;21.06;100.00
7990;BME280;4040;42.848;23.034;2023-06-14T06:35:25;94725.66;;;21.76;100.00
7990;BME280;4040;42.848;23.034;2023-06-14T06:41:14;94724.59;;;21.74;100.00
7990;BME280;4040;42.848;23.034;2023-06-14T06:47:03;94735.19;;;22.15;100.00
7990;BME280;4040;42.848;23.034;2023-06-14T06:52:53;94730.91;;;22.63;100.00
7990;BME280;4040;42.848;23.034;2023-06-14T06:58:42;94736.66;;;22.45;100.00
7990;BME280;4040;42.848;23.034;2023-06-14T07:04:31;94739.97;;;22.00;100.00
7990;BME280;4040;42.848;23.034;2023-06-14T07:10:21;94736.94;;;22.67;100.00
7990;BME280;4040;42.848;23.034;2023-06-14T07:20:14;94728.50;;;23.87;100.00
7990;BME280;4040;42.848;23.034;2023-06-14T07:26:04;94733.50;;;23.12;100.00
7990;BME280;4040;42.848;23.034;2023-06-14T07:31:53;94725.41;;;22.43;100.00
7990;BME280;4040;42.848;23.034;2023-06-14T07:37:42;94738.09;;;22.26;100.00
7990;BME280;4040;42.848;23.034;2023-06-14T07:43:32;94739.53;;;22.76;100.00
7990;BME280;4040;42.848;23.034;2023-06-14T07:49:20;94748.38;;;23.51;100.00
7990;BME280;4040;42.848;23.034;2023-06-14T07:55:09;94753.34;;;23.47;100.00
7990;BME280;4040;42.848;23.034;2023-06-14T08:01:00;94761.97;;;23.35;100.00
7990;BME280;4040;42.848;23.034;2023-06-14T08:06:54;94768.25;;;24.17;94.97
7990;BME280;4040;42.848;23.034;2023-06-14T08:12:42;94769.56;;;27.65;70.11
7990;BME280;4040;42.848;23.034;2023-06-14T08:36:14;94762.78;;;32.54;49.10
7990;BME280;4040;42.848;23.034;2023-06-14T08:42:04;94764.13;;;34.53;46.99
7990;BME280;4040;42.848;23.034;2023-06-14T08:47:54;94733.78;;;36.28;40.98
7990;BME280;4040;42.848;23.034;2023-06-14T08:53:51;94724.91;;;33.15;45.75
7990;BME280;4040;42.848;23.034;2023-06-14T08:59:44;94764.56;;;30.66;50.37
7990;BME280;4040;42.848;23.034;2023-06-14T09:05:36;94747.44;;;32.40;48.83
7990;BME280;4040;42.848;23.034;2023-06-14T09:11:26;94736.56;;;35.49;42.88
7990;BME280;4040;42.848;23.034;2023-06-14T09:17:15;94740.44;;;34.32;41.84
7990;BME280;4040;42.848;23.034;2023-06-14T09:23:04;94733.28;;;35.82;41.91
7990;BME280;4040;42.848;23.034;2023-06-14T09:28:55;94728.13;;;35.64;41.00
7990;BME280;4040;42.848;23.034;2023-06-14T09:35:04;94717.88;;;34.90;41.55
7990;BME280;4040;42.848;23.034;2023-06-14T09:40:56;94722.56;;;35.96;40.97
7990;BME280;4040;42.848;23.034;2023-06-14T09:46:47;94719.44;;;33.73;42.98
7990;BME280;4040;42.848;23.034;2023-06-14T09:52:37;94688.66;;;35.30;40.56
7990;BME280;4040;42.848;23.034;2023-06-14T09:58:28;94699.31;;;39.98;34.62
7990;BME280;4040;42.848;23.034;2023-06-14T10:04:21;94689.84;;;38.44;35.41
7990;BME280;4040;42.848;23.034;2023-06-14T10:10:11;94688.72;;;38.65;35.67
7990;BME280;4040;42.848;23.034;2023-06-14T10:16:05;94658.22;;;38.00;35.85
7990;BME280;4040;42.848;23.034;2023-06-14T10:21:59;94666.31;;;36.43;37.31
7990;BME280;4040;42.848;23.034;2023-06-14T10:27:49;94658.69;;;35.87;37.66
7990;BME280;4040;42.848;23.034;2023-06-14T10:37:41;94645.94;;;37.01;35.31
7990;BME280;4040;42.848;23.034;2023-06-14T10:43:33;94664.59;;;33.12;41.43
7990;BME280;4040;42.848;23.034;2023-06-14T10:49:38;94650.09;;;29.79;50.55
7990;BME280;4040;42.848;23.034;2023-06-14T10:55:34;94646.22;;;26.38;59.93
7990;BME280;4040;42.848;23.034;2023-06-14T11:01:32;94632.53;;;25.72;68.01
7990;BME280;4040;42.848;23.034;2023-06-14T11:07:35;94618.63;;;26.38;68.33
7990;BME280;4040;42.848;23.034;2023-06-14T11:13:33;94618.00;;;25.88;68.46
7990;BME280;4040;42.848;23.034;2023-06-14T11:19:22;94603.16;;;25.14;70.48
7990;BME280;4040;42.848;23.034;2023-06-14T11:25:21;94612.69;;;25.02;80.54
7990;BME280;4040;42.848;23.034;2023-06-14T11:31:11;94608.72;;;25.25;78.05
7990;BME280;4040;42.848;23.034;2023-06-14T11:41:24;94611.13;;;24.79;76.19
7990;BME280;4040;42.848;23.034;2023-06-14T11:47:15;94601.16;;;25.09;77.38
7990;BME280;4040;42.848;23.034;2023-06-14T11:53:04;94591.16;;;25.77;78.46
7990;BME280;4040;42.848;23.034;2023-06-14T11:58:55;94588.88;;;25.10;78.39
7990;BME280;4040;42.848;23.034;2023-06-14T12:04:47;94577.13;;;25.37;75.31
7990;BME280;4040;42.848;23.034;2023-06-14T12:10:41;94574.13;;;25.24;68.19
7990;BME280;4040;42.848;23.034;2023-06-14T12:16:31;94564.47;;;24.48;72.17
7990;BME280;4040;42.848;23.034;2023-06-14T12:22:22;94578.28;;;24.64;67.60
7990;BME280;4040;42.848;23.034;2023-06-14T12:28:11;94584.03;;;24.61;68.39
7990;BME280;4040;42.848;23.034;2023-06-14T12:33:59;94547.78;;;24.90;71.96
7990;BME280;4040;42.848;23.034;2023-06-14T12:44:12;94530.25;;;25.42;75.98
7990;BME280;4040;42.848;23.034;2023-06-14T12:50:01;94546.44;;;26.01;70.45
7990;BME280;4040;42.848;23.034;2023-06-14T12:55:50;94543.94;;;26.03;71.74
7990;BME280;4040;42.848;23.034;2023-06-14T13:01:40;94521.25;;;25.36;70.15
7990;BME280;4040;42.848;23.034;2023-06-14T13:07:29;94535.72;;;25.64;72.31
7990;BME280;4040;42.848;23.034;2023-06-14T13:13:18;94536.75;;;25.56;74.47
7990;BME280;4040;42.848;23.034;2023-06-14T13:19:08;94542.06;;;25.21;70.67
7990;BME280;4040;42.848;23.034;2023-06-14T13:24:56;94548.28;;;25.10;78.33
7990;BME280;4040;42.848;23.034;2023-06-14T13:30:45;94545.75;;;24.79;76.91
7990;BME280;4040;42.848;23.034;2023-06-14T13:36:35;94550.22;;;23.18;100.00
7990;BME280;4040;42.848;23.034;2023-06-14T13:46:46;94552.97;;;20.69;100.00
7990;BME280;4040;42.848;23.034;2023-06-14T13:52:36;94555.00;;;19.93;100.00
7990;BME280;4040;42.848;23.034;2023-06-14T13:58:24;94557.66;;;20.26;100.00
7990;BME280;4040;42.848;23.034;2023-06-14T14:04:14;94562.22;;;20.58;100.00
7990;BME280;4040;42.848;23.034;2023-06-14T14:10:05;94545.75;;;21.44;100.00
7990;BME280;4040;42.848;23.034;2023-06-14T14:15:53;94546.31;;;23.30;100.00
7990;BME280;4040;42.848;23.034;2023-06-14T14:21:42;94552.88;;;24.33;100.00
7990;BME280;4040;42.848;23.034;2023-06-14T14:27:32;94562.97;;;23.88;100.00
7990;BME280;4040;42.848;23.034;2023-06-14T14:33:21;94586.09;;;23.76;100.00
7990;BME280;4040;42.848;23.034;2023-06-14T14:39:10;94592.63;;;23.79;100.00
7990;BME280;4040;42.848;23.034;2023-06-14T14:53:14;94608.91;;;23.46;100.00
7990;BME280;4040;42.848;23.034;2023-06-14T14:59:03;94622.47;;;23.24;100.00
7990;BME280;4040;42.848;23.034;2023-06-14T15:04:52;94614.38;;;22.44;100.00
7990;BME280;4040;42.848;23.034;2023-06-14T15:10:42;94630.34;;;22.26;100.00
7990;BME280;4040;42.848;23.034;2023-06-14T15:16:32;94618.66;;;21.71;100.00
7990;BME280;4040;42.848;23.034;2023-06-14T15:22:21;94620.44;;;21.59;100.00
7990;BME280;4040;42.848;23.034;2023-06-14T15:28:11;94637.00;;;21.50;100.00
7990;BME280;4040;42.848;23.034;2023-06-14T15:34:00;94641.63;;;21.59;100.00
7990;BME280;4040;42.848;23.034;2023-06-14T15:39:48;94615.66;;;21.54;100.00
7990;BME280;4040;42.848;23.034;2023-06-14T15:45:39;94645.97;;;21.65;100.00
7990;BME280;4040;42.848;23.034;2023-06-14T15:51:27;94635.66;;;21.46;100.00
7990;BME280;4040;42.848;23.034;2023-06-14T15:57:16;94627.38;;;21.40;100.00
7990;BME280;4040;42.848;23.034;2023-06-14T16:03:06;94633.06;;;21.22;100.00
7990;BME280;4040;42.848;23.034;2023-06-14T16:08:55;94626.44;;;21.29;100.00
7990;BME280;4040;42.848;23.034;2023-06-14T16:14:43;94631.56;;;21.07;100.00
7990;BME280;4040;42.848;23.034;2023-06-14T16:20:34;94644.16;;;20.75;100.00
7990;BME280;4040;42.848;23.034;2023-06-14T16:26:23;94653.94;;;20.67;100.00
7990;BME280;4040;42.848;23.034;2023-06-14T16:32:12;94659.59;;;20.64;100.00
7990;BME280;4040;42.848;23.034;2023-06-14T16:38:02;94667.50;;;20.48;100.00
7990;BME280;4040;42.848;23.034;2023-06-14T16:43:51;94678.25;;;20.51;100.00
7990;BME280;4040;42.848;23.034;2023-06-14T16:49:40;94678.25;;;20.51;100.00
7990;BME280;4040;42.848;23.034;2023-06-14T16:55:30;94686.69;;;20.24;100.00
7990;BME280;4040;42.848;23.034;2023-06-14T17:01:22;94691.72;;;20.17;100.00
7990;BME280;4040;42.848;23.034;2023-06-14T17:07:10;94701.56;;;19.91;100.00
7990;BME280;4040;42.848;23.034;2023-06-14T17:13:00;94716.19;;;19.79;100.00
7990;BME280;4040;42.848;23.034;2023-06-14T17:18:49;94722.97;;;19.51;100.00
7990;BME280;4040;42.848;23.034;2023-06-14T17:24:38;94747.84;;;19.53;100.00
7990;BME280;4040;42.848;23.034;2023-06-14T17:30:28;94755.00;;;19.50;100.00
7990;BME280;4040;42.848;23.034;2023-06-14T17:36:17;94770.75;;;19.64;100.00
7990;BME280;4040;42.848;23.034;2023-06-14T17:42:06;94781.56;;;19.50;100.00
7990;BME280;4040;42.848;23.034;2023-06-14T17:47:56;94789.16;;;19.37;100.00
7990;BME280;4040;42.848;23.034;2023-06-14T17:53:45;94793.44;;;19.29;100.00
7990;BME280;4040;42.848;23.034;2023-06-14T17:59:34;94810.72;;;19.26;100.00
7990;BME280;4040;42.848;23.034;2023-06-14T18:05:24;94820.72;;;19.38;100.00
7990;BME280;4040;42.848;23.034;2023-06-14T18:11:13;94836.78;;;19.45;100.00
7990;BME280;4040;42.848;23.034;2023-06-14T18:17:02;94831.94;;;19.40;100.00
7990;BME280;4040;42.848;23.034;2023-06-14T18:22:52;94838.91;;;19.14;100.00
7990;BME280;4040;42.848;23.034;2023-06-14T18:28:42;94822.94;;;18.76;100.00
7990;BME280;4040;42.848;23.034;2023-06-14T18:34:30;94815.78;;;18.61;100.00
7990;BME280;4040;42.848;23.034;2023-06-14T18:40:20;94801.09;;;18.49;100.00
7990;BME280;4040;42.848;23.034;2023-06-14T18:46:09;94809.72;;;18.48;100.00
7990;BME280;4040;42.848;23.034;2023-06-14T18:56:01;94833.34;;;18.51;100.00
7990;BME280;4040;42.848;23.034;2023-06-14T19:01:49;94834.56;;;18.41;100.00
7990;BME280;4040;42.848;23.034;2023-06-14T19:07:38;94829.69;;;18.36;100.00
7990;BME280;4040;42.848;23.034;2023-06-14T19:13:28;94832.19;;;18.21;100.00
7990;BME280;4040;42.848;23.034;2023-06-14T19:19:18;94846.38;;;18.07;100.00
7990;BME280;4040;42.848;23.034;2023-06-14T19:25:07;94853.72;;;17.98;100.00
7990;BME280;4040;42.848;23.034;2023-06-14T19:30:57;94859.28;;;17.86;100.00
7990;BME280;4040;42.848;23.034;2023-06-14T19:36:46;94836.94;;;17.69;100.00
7990;BME280;4040;42.848;23.034;2023-06-14T19:42:35;94846.34;;;17.77;100.00
7990;BME280;4040;42.848;23.034;2023-06-14T19:48:26;94836.41;;;17.83;100.00
7990;BME280;4040;42.848;23.034;2023-06-14T19:58:27;94840.44;;;18.00;100.00
7990;BME280;4040;42.848;23.034;2023-06-14T20:04:17;94835.19;;;17.84;100.00
7990;BME280;4040;42.848;23.034;2023-06-14T20:10:06;94821.84;;;17.77;100.00
7990;BME280;4040;42.848;23.034;2023-06-14T20:15:57;94853.59;;;18.01;100.00
7990;BME280;4040;42.848;23.034;2023-06-14T20:21:47;94844.81;;;17.98;100.00
7990;BME280;4040;42.848;23.034;2023-06-14T20:27:36;94852.31;;;17.85;100.00
7990;BME280;4040;42.848;23.034;2023-06-14T20:33:25;94847.66;;;17.94;100.00
7990;BME280;4040;42.848;23.034;2023-06-14T20:39:15;94847.31;;;17.83;100.00
7990;BME280;4040;42.848;23.034;2023-06-14T20:45:04;94851.78;;;17.77;100.00
7990;BME280;4040;42.848;23.034;2023-06-14T20:50:53;94834.88;;;17.82;100.00
7990;BME280;4040;42.848;23.034;2023-06-14T21:01:06;94835.41;;;17.98;100.00
7990;BME280;4040;42.848;23.034;2023-06-14T21:06:54;94846.16;;;17.93;100.00
7990;BME280;4040;42.848;23.034;2023-06-14T21:12:43;94853.97;;;17.82;100.00
7990;BME280;4040;42.848;23.034;2023-06-14T21:18:33;94846.88;;;17.85;100.00
7990;BME280;4040;42.848;23.034;2023-06-14T21:24:22;94846.03;;;17.75;100.00
7990;BME280;4040;42.848;23.034;2023-06-14T21:30:15;94838.34;;;17.52;100.00
7990;BME280;4040;42.848;23.034;2023-06-14T21:36:06;94854.63;;;17.43;100.00
7990;BME280;4040;42.848;23.034;2023-06-14T21:41:54;94832.66;;;17.25;100.00
7990;BME280;4040;42.848;23.034;2023-06-14T21:47:43;94847.03;;;17.38;100.00
7990;BME280;4040;42.848;23.034;2023-06-14T21:53:34;94840.69;;;17.41;100.00
7990;BME280;4040;42.848;23.034;2023-06-14T22:08:27;94834.97;;;17.27;100.00
7990;BME280;4040;42.848;23.034;2023-06-14T22:14:19;94831.94;;;17.25;100.00
7990;BME280;4040;42.848;23.034;2023-06-14T22:20:09;94840.66;;;17.20;100.00
7990;BME280;4040;42.848;23.034;2023-06-14T22:26:04;94846.94;;;17.29;100.00
7990;BME280;4040;42.848;23.034;2023-06-14T22:31:56;94847.13;;;17.35;100.00
7990;BME280;4040;42.848;23.034;2023-06-14T22:37:45;94845.75;;;16.96;100.00
7990;BME280;4040;42.848;23.034;2023-06-14T22:43:37;94858.59;;;16.49;100.00
7990;BME280;4040;42.848;23.034;2023-06-14T22:49:26;94867.16;;;16.23;100.00
7990;BME280;4040;42.848;23.034;2023-06-14T22:55:17;94870.00;;;16.19;100.00
7990;BME280;4040;42.848;23.034;2023-06-14T23:01:10;94867.28;;;16.19;100.00
7990;BME280;4040;42.848;23.034;2023-06-14T23:11:22;94849.78;;;16.08;100.00
7990;BME280;4040;42.848;23.034;2023-06-14T23:17:13;94850.22;;;16.06;100.00
7990;BME280;4040;42.848;23.034;2023-06-14T23:23:02;94842.06;;;16.06;100.00
7990;BME280;4040;42.848;23.034;2023-06-14T23:28:51;94847.50;;;16.06;100.00
7990;BME280;4040;42.848;23.034;2023-06-14T23:34:42;94851.53;;;16.14;100.00
7990;BME280;4040;42.848;23.034;2023-06-14T23:40:31;94840.44;;;16.09;100.00
7990;BME280;4040;42.848;23.034;2023-06-14T23:46:20;94853.56;;;16.10;100.00
7990;BME280;4040;42.848;23.034;2023-06-14T23:52:12;94836.31;;;16.17;100.00
7990;BME280;4040;42.848;23.034;2023-06-14T23:58:01;94840.41;;;16.21;100.00
